createdAt,value
2018-10-02T00:00:21.633Z,7.50
2018-10-02T00:02:50.214Z,7.50
2018-10-02T00:05:19.665Z,7.60
2018-10-02T00:07:48.250Z,7.60
2018-10-02T00:10:16.802Z,7.60
2018-10-02T00:12:50.619Z,7.60
2018-10-02T00:15:19.231Z,7.60
2018-10-02T00:17:47.780Z,7.60
2018-10-02T00:20:16.358Z,7.60
2018-10-02T00:22:44.924Z,7.50
2018-10-02T00:25:13.494Z,7.50
2018-10-02T00:27:42.041Z,7.50
2018-10-02T00:30:10.703Z,7.40
2018-10-02T00:32:39.236Z,7.40
2018-10-02T00:35:07.867Z,7.40
2018-10-02T00:37:36.427Z,7.30
2018-10-02T00:40:05.137Z,7.30
2018-10-02T00:42:33.689Z,7.20
2018-10-02T00:45:02.234Z,7.30
2018-10-02T00:47:30.792Z,7.30
2018-10-02T00:49:59.348Z,7.30
2018-10-02T00:52:27.889Z,7.20
2018-10-02T00:54:56.441Z,7.10
2018-10-02T00:57:25.023Z,7.10
2018-10-02T00:59:53.558Z,7.10
2018-10-02T01:02:22.144Z,7.10
2018-10-02T01:04:51.116Z,7.10
2018-10-02T01:07:19.665Z,7.10
2018-10-02T01:09:48.202Z,7.10
2018-10-02T01:12:16.775Z,7.10
2018-10-02T01:14:45.325Z,7.10
2018-10-02T01:17:13.871Z,7.00
2018-10-02T01:19:42.480Z,7.00
2018-10-02T01:22:11.025Z,6.90
2018-10-02T01:24:39.557Z,6.90
2018-10-02T01:27:08.119Z,6.90
2018-10-02T01:29:36.699Z,6.90
2018-10-02T01:32:05.272Z,6.90
2018-10-02T01:34:33.830Z,6.90
2018-10-02T01:37:02.373Z,6.80
2018-10-02T01:39:30.948Z,6.80
2018-10-02T01:41:59.502Z,6.80
2018-10-02T01:44:28.095Z,6.70
2018-10-02T01:46:56.668Z,6.80
2018-10-02T01:49:25.265Z,6.70
2018-10-02T01:51:53.855Z,6.70
2018-10-02T01:54:22.427Z,6.70
2018-10-02T01:56:51.209Z,6.70
2018-10-02T01:59:19.852Z,6.70
2018-10-02T02:01:48.463Z,6.70
2018-10-02T02:04:17.030Z,6.60
2018-10-02T02:06:45.583Z,6.70
2018-10-02T02:09:14.166Z,6.70
2018-10-02T02:11:42.768Z,6.60
2018-10-02T02:14:11.333Z,6.60
2018-10-02T02:16:39.887Z,6.50
2018-10-02T02:19:08.434Z,6.60
2018-10-02T02:21:37.069Z,6.50
2018-10-02T02:24:05.637Z,6.50
2018-10-02T02:26:34.211Z,6.50
2018-10-02T02:29:02.766Z,6.50
2018-10-02T02:31:31.351Z,6.60
2018-10-02T02:33:59.918Z,6.50
2018-10-02T02:36:28.457Z,6.40
2018-10-02T02:38:57.024Z,6.40
2018-10-02T02:41:25.585Z,6.40
2018-10-02T02:43:54.133Z,6.40
2018-10-02T02:46:22.707Z,6.40
2018-10-02T02:48:56.625Z,6.30
2018-10-02T02:51:31.233Z,6.30
2018-10-02T02:53:59.809Z,6.30
2018-10-02T02:56:29.173Z,6.30
2018-10-02T02:58:58.865Z,6.30
2018-10-02T03:01:27.971Z,6.30
2018-10-02T03:03:56.556Z,6.30
2018-10-02T03:06:25.132Z,6.30
2018-10-02T03:08:54.354Z,6.30
2018-10-02T03:11:22.951Z,6.40
2018-10-02T03:13:51.503Z,6.30
2018-10-02T03:16:20.148Z,6.30
2018-10-02T03:18:48.676Z,6.30
2018-10-02T03:21:17.235Z,6.40
2018-10-02T03:23:45.885Z,6.30
2018-10-02T03:26:14.416Z,6.30
2018-10-02T03:28:42.939Z,6.40
2018-10-02T03:31:11.491Z,6.40
2018-10-02T03:33:40.023Z,6.40
2018-10-02T03:36:08.526Z,6.30
2018-10-02T03:38:37.094Z,6.40
2018-10-02T03:41:05.693Z,6.50
2018-10-02T03:43:34.234Z,6.40
2018-10-02T03:46:02.816Z,6.40
2018-10-02T03:48:31.389Z,6.30
2018-10-02T03:50:59.941Z,6.30
2018-10-02T03:53:28.516Z,6.40
2018-10-02T03:55:57.077Z,6.40
2018-10-02T03:58:25.639Z,6.40
2018-10-02T04:00:54.204Z,6.40
2018-10-02T04:03:22.824Z,6.40
2018-10-02T04:05:51.361Z,6.30
2018-10-02T04:08:19.889Z,6.30
2018-10-02T04:10:48.454Z,6.30
2018-10-02T04:13:17.107Z,6.30
2018-10-02T04:15:45.640Z,6.30
2018-10-02T04:18:14.242Z,6.30
2018-10-02T04:20:42.846Z,6.30
2018-10-02T04:23:11.418Z,6.30
2018-10-02T04:25:39.986Z,6.30
2018-10-02T04:28:08.561Z,6.30
2018-10-02T04:30:37.106Z,6.30
2018-10-02T04:33:05.670Z,6.30
2018-10-02T04:35:34.217Z,6.40
2018-10-02T04:38:02.776Z,6.30
2018-10-02T04:40:31.332Z,6.30
2018-10-02T04:42:59.882Z,6.30
2018-10-02T04:45:28.440Z,6.30
2018-10-02T04:47:57.012Z,6.30
2018-10-02T04:50:26.329Z,6.30
2018-10-02T04:52:57.273Z,6.30
2018-10-02T04:55:26.009Z,6.30
2018-10-02T04:57:54.548Z,6.30
2018-10-02T05:00:23.098Z,6.30
2018-10-02T05:02:51.677Z,6.30
2018-10-02T05:05:20.251Z,6.30
2018-10-02T05:07:48.779Z,6.20
2018-10-02T05:10:17.359Z,6.20
2018-10-02T05:12:45.896Z,6.20
2018-10-02T05:15:14.435Z,6.20
2018-10-02T05:17:42.989Z,6.20
2018-10-02T05:20:11.571Z,6.20
2018-10-02T05:22:40.127Z,6.20
2018-10-02T05:25:08.729Z,6.20
2018-10-02T05:27:37.353Z,6.20
2018-10-02T05:30:05.921Z,6.20
2018-10-02T05:32:34.478Z,6.20
2018-10-02T05:35:03.054Z,6.20
2018-10-02T05:37:31.631Z,6.20
2018-10-02T05:40:00.195Z,6.20
2018-10-02T05:42:28.753Z,6.20
2018-10-02T05:44:57.313Z,6.30
2018-10-02T05:47:25.869Z,6.30
2018-10-02T05:49:54.437Z,6.30
2018-10-02T05:52:22.961Z,6.30
2018-10-02T05:54:51.525Z,6.30
2018-10-02T05:57:20.185Z,6.30
2018-10-02T05:59:48.784Z,6.30
2018-10-02T06:02:17.911Z,6.30
2018-10-02T06:04:46.491Z,6.40
2018-10-02T06:07:15.030Z,6.40
2018-10-02T06:09:43.664Z,6.40
2018-10-02T06:12:12.198Z,6.50
2018-10-02T06:14:40.743Z,6.60
2018-10-02T06:17:09.307Z,6.70
2018-10-02T06:19:37.863Z,6.80
2018-10-02T06:22:06.504Z,6.90
2018-10-02T06:24:35.142Z,6.90
2018-10-02T06:27:03.665Z,6.90
2018-10-02T06:29:32.264Z,6.80
2018-10-02T06:32:00.822Z,6.80
2018-10-02T06:34:29.369Z,6.80
2018-10-02T06:36:59.388Z,6.80
2018-10-02T06:39:29.920Z,6.70
2018-10-02T06:41:59.241Z,6.70
2018-10-02T06:44:27.858Z,6.70
2018-10-02T06:46:56.408Z,6.70
2018-10-02T06:49:25.557Z,6.70
2018-10-02T06:51:54.399Z,6.70
2018-10-02T06:54:23.419Z,6.70
2018-10-02T06:56:52.023Z,6.80
2018-10-02T06:59:20.584Z,6.80
2018-10-02T07:01:49.139Z,6.80
2018-10-02T07:04:17.732Z,6.80
2018-10-02T07:06:46.305Z,6.90
2018-10-02T07:09:14.862Z,6.90
2018-10-02T07:11:43.445Z,6.90
2018-10-02T07:14:12.328Z,6.90
2018-10-02T07:16:40.911Z,7.00
2018-10-02T07:19:09.475Z,7.00
2018-10-02T07:21:38.318Z,7.00
2018-10-02T07:24:06.909Z,7.00
2018-10-02T07:26:35.625Z,7.00
2018-10-02T07:29:04.163Z,7.00
2018-10-02T07:31:32.753Z,7.00
2018-10-02T07:34:01.367Z,7.00
2018-10-02T07:36:29.964Z,7.00
2018-10-02T07:38:58.547Z,7.00
2018-10-02T07:41:27.120Z,7.00
2018-10-02T07:43:55.656Z,7.00
2018-10-02T07:46:24.206Z,7.00
2018-10-02T07:48:52.742Z,7.00
2018-10-02T07:51:21.301Z,7.00
2018-10-02T07:53:49.845Z,7.10
2018-10-02T07:56:18.424Z,7.10
2018-10-02T07:58:46.989Z,7.30
2018-10-02T08:01:15.537Z,7.40
2018-10-02T08:03:44.082Z,7.50
2018-10-02T08:06:12.709Z,7.60
2018-10-02T08:08:41.386Z,7.70
2018-10-02T08:11:10.062Z,7.90
2018-10-02T08:13:38.684Z,7.90
2018-10-02T08:16:07.357Z,7.90
2018-10-02T08:18:35.943Z,7.80
2018-10-02T08:21:04.531Z,7.90
2018-10-02T08:23:33.071Z,8.00
2018-10-02T08:26:01.613Z,8.00
2018-10-02T08:28:30.151Z,8.00
2018-10-02T08:30:58.764Z,7.90
2018-10-02T08:33:27.303Z,7.90
2018-10-02T08:35:56.009Z,7.80
2018-10-02T08:38:24.501Z,7.70
2018-10-02T08:40:53.083Z,7.70
2018-10-02T08:43:21.735Z,7.70
2018-10-02T08:45:50.236Z,7.60
2018-10-02T08:48:18.793Z,7.60
2018-10-02T08:50:47.352Z,7.60
2018-10-02T08:53:15.941Z,7.70
2018-10-02T08:55:44.500Z,7.90
2018-10-02T08:58:13.051Z,7.90
2018-10-02T09:00:41.620Z,8.00
2018-10-02T09:03:10.233Z,8.30
2018-10-02T09:05:38.782Z,8.60
2018-10-02T09:08:07.371Z,8.70
2018-10-02T09:10:35.923Z,8.70
2018-10-02T09:13:04.631Z,8.80
2018-10-02T09:15:33.180Z,8.70
2018-10-02T09:18:01.734Z,8.80
2018-10-02T09:20:30.300Z,8.90
2018-10-02T09:22:58.879Z,8.80
2018-10-02T09:25:27.439Z,8.70
2018-10-02T09:27:56.042Z,8.80
2018-10-02T09:30:29.928Z,9.20
2018-10-02T09:33:03.894Z,9.60
2018-10-02T09:35:37.805Z,9.60
2018-10-02T09:38:11.650Z,9.40
2018-10-02T09:40:45.365Z,9.30
2018-10-02T09:43:19.385Z,9.20
2018-10-02T09:45:48.031Z,9.20
2018-10-02T09:48:16.583Z,9.00
2018-10-02T09:50:45.206Z,8.90
2018-10-02T09:53:13.756Z,8.80
2018-10-02T09:55:42.337Z,8.60
2018-10-02T09:58:10.949Z,8.60
2018-10-02T10:00:44.812Z,8.70
2018-10-02T10:03:13.455Z,9.20
2018-10-02T10:05:42.023Z,9.80
2018-10-02T10:08:10.600Z,10.10
2018-10-02T10:10:39.241Z,10.30
2018-10-02T10:13:07.746Z,10.40
2018-10-02T10:15:36.308Z,10.10
2018-10-02T10:18:04.852Z,9.80
2018-10-02T10:20:33.429Z,9.70
2018-10-02T10:23:02.015Z,9.70
2018-10-02T10:25:30.551Z,9.80
2018-10-02T10:27:59.110Z,9.80
2018-10-02T10:30:27.689Z,9.80
2018-10-02T10:32:56.288Z,9.80
2018-10-02T10:35:24.837Z,9.70
2018-10-02T10:37:53.423Z,9.70
2018-10-02T10:40:21.995Z,9.90
2018-10-02T10:42:50.566Z,10.00
2018-10-02T10:45:19.130Z,10.10
2018-10-02T10:47:47.728Z,10.40
2018-10-02T10:50:16.255Z,10.70
2018-10-02T10:52:44.888Z,10.90
2018-10-02T10:55:30.828Z,11.00
2018-10-02T10:57:59.378Z,11.10
2018-10-02T11:00:27.937Z,10.90
2018-10-02T11:02:56.542Z,10.70
2018-10-02T11:05:25.132Z,10.60
2018-10-02T11:07:53.687Z,10.40
2018-10-02T11:10:22.273Z,10.40
2018-10-02T11:12:50.840Z,10.50
2018-10-02T11:15:20.778Z,10.70
2018-10-02T11:17:49.328Z,10.90
2018-10-02T11:20:20.651Z,11.00
2018-10-02T11:22:49.209Z,10.90
2018-10-02T11:25:17.809Z,10.60
2018-10-02T11:27:46.384Z,10.60
2018-10-02T11:30:15.051Z,10.70
2018-10-02T11:32:43.599Z,10.70
2018-10-02T11:35:12.265Z,10.60
2018-10-02T11:37:40.903Z,10.60
2018-10-02T11:40:09.416Z,10.80
2018-10-02T11:42:38.025Z,11.10
2018-10-02T11:45:06.739Z,11.10
2018-10-02T11:47:35.211Z,11.20
2018-10-02T11:50:03.900Z,11.00
2018-10-02T11:52:32.513Z,11.00
2018-10-02T11:55:01.062Z,11.00
2018-10-02T11:57:29.664Z,11.00
2018-10-02T11:59:58.277Z,10.90
2018-10-02T12:02:26.972Z,10.70
2018-10-02T12:04:55.578Z,10.60
2018-10-02T12:07:24.130Z,10.60
2018-10-02T12:09:52.683Z,10.50
2018-10-02T12:12:21.269Z,10.40
2018-10-02T12:14:49.848Z,10.30
2018-10-02T12:17:18.370Z,10.20
2018-10-02T12:19:47.100Z,10.00
2018-10-02T12:22:15.523Z,10.00
2018-10-02T12:24:44.088Z,10.10
2018-10-02T12:27:12.642Z,10.30
2018-10-02T12:29:41.169Z,10.60
2018-10-02T12:32:09.741Z,10.80
2018-10-02T12:34:38.290Z,10.90
2018-10-02T12:37:07.023Z,10.90
2018-10-02T12:39:35.620Z,10.80
2018-10-02T12:42:04.198Z,10.80
2018-10-02T12:44:32.736Z,10.70
2018-10-02T12:47:01.308Z,10.60
2018-10-02T12:49:29.923Z,10.50
2018-10-02T12:51:58.493Z,10.60
2018-10-02T12:54:27.028Z,10.70
2018-10-02T12:56:55.646Z,10.80
2018-10-02T12:59:24.246Z,10.70
2018-10-02T13:01:52.801Z,10.70
2018-10-02T13:04:21.396Z,10.80
2018-10-02T13:06:50.002Z,10.80
2018-10-02T13:09:18.545Z,10.80
2018-10-02T13:11:47.135Z,10.80
2018-10-02T13:14:15.727Z,10.80
2018-10-02T13:16:44.318Z,10.80
2018-10-02T13:19:12.870Z,10.70
2018-10-02T13:21:41.421Z,10.60
2018-10-02T13:24:09.979Z,10.50
2018-10-02T13:26:39.295Z,10.50
2018-10-02T13:29:07.882Z,10.40
2018-10-02T13:31:36.430Z,10.30
2018-10-02T13:34:05.036Z,10.30
2018-10-02T13:36:33.601Z,10.30
2018-10-02T13:39:02.173Z,10.20
2018-10-02T13:41:30.748Z,10.20
2018-10-02T13:44:00.629Z,10.30
2018-10-02T13:46:29.271Z,10.30
2018-10-02T13:48:57.830Z,10.40
2018-10-02T13:51:26.415Z,10.40
2018-10-02T13:53:55.036Z,10.40
2018-10-02T13:56:23.582Z,10.30
2018-10-02T13:58:52.177Z,10.30
2018-10-02T14:01:20.897Z,10.30
2018-10-02T14:03:49.454Z,10.30
2018-10-02T14:06:18.047Z,10.30
2018-10-02T14:08:46.653Z,10.30
2018-10-02T14:11:15.373Z,10.30
2018-10-02T14:13:43.930Z,10.20
2018-10-02T14:16:12.485Z,10.10
2018-10-02T14:18:41.039Z,10.00
2018-10-02T14:21:09.609Z,10.00
2018-10-02T14:23:38.172Z,9.90
2018-10-02T14:26:06.766Z,9.80
2018-10-02T14:28:35.301Z,9.80
2018-10-02T14:31:03.917Z,10.00
2018-10-02T14:33:33.170Z,9.90
2018-10-02T14:36:01.886Z,10.00
2018-10-02T14:38:31.516Z,10.00
2018-10-02T14:41:00.281Z,10.00
2018-10-02T14:43:29.895Z,9.90
2018-10-02T14:45:58.452Z,9.80
2018-10-02T14:48:27.021Z,9.70
2018-10-02T14:50:55.784Z,9.60
2018-10-02T14:53:24.360Z,9.60
2018-10-02T14:55:52.923Z,9.50
2018-10-02T14:58:21.550Z,9.40
2018-10-02T15:00:50.256Z,9.40
2018-10-02T15:03:18.858Z,9.40
2018-10-02T15:05:47.427Z,9.40
2018-10-02T15:08:16.028Z,9.40
2018-10-02T15:10:45.875Z,9.40
2018-10-02T15:13:15.511Z,9.30
2018-10-02T15:15:44.139Z,9.30
2018-10-02T15:18:12.799Z,9.20
2018-10-02T15:20:41.407Z,9.20
2018-10-02T15:23:10.007Z,9.10
2018-10-02T15:25:38.595Z,9.10
2018-10-02T15:28:08.030Z,9.00
2018-10-02T15:30:36.612Z,9.00
2018-10-02T15:33:05.150Z,8.90
2018-10-02T15:35:33.788Z,8.90
2018-10-02T15:38:02.396Z,8.90
2018-10-02T15:40:30.952Z,8.90
2018-10-02T15:42:59.567Z,8.90
2018-10-02T15:45:28.128Z,8.90
2018-10-02T15:47:56.712Z,8.80
2018-10-02T15:50:25.296Z,8.80
2018-10-02T15:52:53.896Z,8.70
2018-10-02T15:55:22.493Z,8.70
2018-10-02T15:57:51.065Z,8.60
2018-10-02T16:00:19.657Z,8.60
2018-10-02T16:02:48.246Z,8.50
2018-10-02T16:05:16.920Z,8.50
2018-10-02T16:07:45.496Z,8.50
2018-10-02T16:10:14.096Z,8.50
2018-10-02T16:12:42.722Z,8.40
2018-10-02T16:15:11.325Z,8.40
2018-10-02T16:17:39.912Z,8.40
2018-10-02T16:20:08.500Z,8.30
2018-10-02T16:22:37.042Z,8.30
2018-10-02T16:25:05.805Z,8.30
2018-10-02T16:27:34.432Z,8.30
2018-10-02T16:30:03.002Z,8.30
2018-10-02T16:32:31.613Z,8.30
2018-10-02T16:35:00.309Z,8.20
2018-10-02T16:37:28.813Z,8.20
2018-10-02T16:39:57.504Z,8.20
2018-10-02T16:42:26.181Z,8.20
2018-10-02T16:44:54.776Z,8.20
2018-10-02T16:47:23.408Z,8.20
2018-10-02T16:49:51.983Z,8.20
2018-10-02T16:52:20.576Z,8.20
2018-10-02T16:54:49.152Z,8.20
2018-10-02T16:57:17.815Z,8.10
2018-10-02T16:59:46.359Z,8.10
2018-10-02T17:02:14.965Z,8.10
2018-10-02T17:04:43.645Z,8.00
2018-10-02T17:07:12.230Z,8.00
2018-10-02T17:09:40.817Z,7.90
2018-10-02T17:12:09.675Z,7.80
2018-10-02T17:14:38.291Z,7.70
2018-10-02T17:17:06.954Z,7.60
2018-10-02T17:19:35.567Z,7.50
2018-10-02T17:22:04.180Z,7.40
2018-10-02T17:24:32.748Z,7.30
2018-10-02T17:27:01.298Z,7.20
2018-10-02T17:29:29.896Z,7.10
2018-10-02T17:31:58.481Z,7.10
2018-10-02T17:34:27.093Z,7.10
2018-10-02T17:36:55.668Z,7.00
2018-10-02T17:39:24.252Z,6.90
2018-10-02T17:41:52.811Z,6.90
2018-10-02T17:44:21.403Z,6.90
2018-10-02T17:46:49.972Z,6.80
2018-10-02T17:49:18.534Z,6.80
2018-10-02T17:51:47.118Z,6.80
2018-10-02T17:54:15.810Z,6.80
2018-10-02T17:56:44.394Z,6.80
2018-10-02T17:59:13.007Z,6.70
2018-10-02T18:01:41.688Z,6.70
2018-10-02T18:04:10.402Z,6.80
2018-10-02T18:06:39.012Z,6.80
2018-10-02T18:09:08.594Z,6.80
2018-10-02T18:11:37.574Z,6.80
2018-10-02T18:14:06.183Z,6.70
2018-10-02T18:16:34.768Z,6.70
2018-10-02T18:19:03.347Z,6.80
2018-10-02T18:21:31.914Z,6.80
2018-10-02T18:24:00.508Z,6.80
2018-10-02T18:26:29.133Z,6.80
2018-10-02T18:28:57.725Z,6.70
2018-10-02T18:31:26.281Z,6.70
2018-10-02T18:33:54.957Z,6.70
2018-10-02T18:36:23.529Z,6.70
2018-10-02T18:38:52.137Z,6.70
2018-10-02T18:41:20.659Z,6.70
2018-10-02T18:43:49.201Z,6.70
2018-10-02T18:46:17.780Z,6.70
2018-10-02T18:48:46.356Z,6.70
2018-10-02T18:51:14.924Z,6.80
2018-10-02T18:53:43.504Z,6.80
2018-10-02T18:56:12.178Z,6.80
2018-10-02T18:58:40.730Z,6.80
2018-10-02T19:01:09.313Z,6.80
2018-10-02T19:03:37.940Z,6.90
2018-10-02T19:06:06.538Z,6.90
2018-10-02T19:08:40.466Z,6.90
2018-10-02T19:11:14.418Z,7.00
2018-10-02T19:13:42.964Z,7.00
2018-10-02T19:16:16.890Z,7.00
2018-10-02T19:18:45.552Z,7.10
2018-10-02T19:21:14.150Z,7.10
2018-10-02T19:23:42.811Z,7.10
2018-10-02T19:26:18.777Z,7.10
2018-10-02T19:28:47.455Z,7.20
2018-10-02T19:31:21.256Z,7.20
2018-10-02T19:33:49.895Z,7.30
2018-10-02T19:36:18.593Z,7.30
2018-10-02T19:38:56.454Z,7.30
2018-10-02T19:41:25.504Z,7.30
2018-10-02T19:43:54.080Z,7.30
2018-10-02T19:46:25.683Z,7.30
2018-10-02T19:48:54.518Z,7.30
2018-10-02T19:51:28.301Z,7.30
2018-10-02T19:53:57.114Z,7.30
2018-10-02T19:56:25.707Z,7.30
2018-10-02T19:58:54.741Z,7.40
2018-10-02T20:01:23.697Z,7.40
2018-10-02T20:03:52.322Z,7.40
2018-10-02T20:06:20.869Z,7.40
2018-10-02T20:08:49.480Z,7.50
2018-10-02T20:11:18.077Z,7.40
2018-10-02T20:13:47.253Z,7.50
2018-10-02T20:16:15.789Z,7.50
2018-10-02T20:18:44.333Z,7.50
2018-10-02T20:21:12.909Z,7.60
2018-10-02T20:23:41.457Z,7.50
2018-10-02T20:26:10.017Z,7.50
2018-10-02T20:28:38.577Z,7.60
2018-10-02T20:31:07.209Z,7.60
2018-10-02T20:33:35.785Z,7.60
2018-10-02T20:36:04.375Z,7.60
2018-10-02T20:38:33.045Z,7.70
2018-10-02T20:41:02.620Z,7.70
2018-10-02T20:43:31.225Z,7.70
2018-10-02T20:45:59.785Z,7.70
2018-10-02T20:48:28.352Z,7.70
2018-10-02T20:50:56.889Z,7.90
2018-10-02T20:53:25.459Z,7.90
2018-10-02T20:55:54.097Z,7.90
2018-10-02T20:58:23.296Z,7.90
2018-10-02T21:00:51.846Z,8.00
2018-10-02T21:03:20.419Z,8.00
2018-10-02T21:05:48.995Z,8.10
2018-10-02T21:08:17.531Z,8.10
2018-10-02T21:10:46.159Z,8.10
2018-10-02T21:13:14.740Z,8.20
2018-10-02T21:15:43.485Z,8.20
2018-10-02T21:18:11.853Z,8.20
2018-10-02T21:20:40.412Z,8.20
2018-10-02T21:23:08.957Z,8.20
2018-10-02T21:25:37.534Z,8.20
2018-10-02T21:28:06.180Z,8.20
2018-10-02T21:30:34.744Z,8.20
2018-10-02T21:33:03.345Z,8.20
2018-10-02T21:35:31.885Z,8.20
2018-10-02T21:38:00.503Z,8.20
2018-10-02T21:40:29.106Z,8.20
2018-10-02T21:42:57.668Z,8.20
2018-10-02T21:45:26.233Z,8.20
2018-10-02T21:47:54.827Z,8.20
2018-10-02T21:50:23.382Z,8.30
2018-10-02T21:52:51.986Z,8.30
2018-10-02T21:55:20.615Z,8.30
2018-10-02T21:57:49.153Z,8.30
2018-10-02T22:00:17.757Z,8.40
2018-10-02T22:02:46.297Z,8.40
2018-10-02T22:05:14.899Z,8.40
2018-10-02T22:07:43.548Z,8.40
2018-10-02T22:10:12.091Z,8.40
2018-10-02T22:12:40.679Z,8.40
2018-10-02T22:15:09.349Z,8.40
2018-10-02T22:17:38.526Z,8.40
2018-10-02T22:20:07.157Z,8.40
2018-10-02T22:22:35.739Z,8.40
2018-10-02T22:25:04.321Z,8.40
2018-10-02T22:27:32.876Z,8.40
2018-10-02T22:30:01.449Z,8.40
2018-10-02T22:32:30.033Z,8.50
2018-10-02T22:34:58.576Z,8.40
2018-10-02T22:37:27.131Z,8.40
2018-10-02T22:39:55.729Z,8.50
2018-10-02T22:42:24.252Z,8.50
2018-10-02T22:44:52.820Z,8.50
2018-10-02T22:47:21.359Z,8.50
2018-10-02T22:49:49.900Z,8.50
2018-10-02T22:52:18.469Z,8.50
2018-10-02T22:54:47.011Z,8.50
2018-10-02T22:57:15.553Z,8.50
2018-10-02T22:59:44.120Z,8.50
2018-10-02T23:02:12.661Z,8.60
2018-10-02T23:04:41.221Z,8.60
2018-10-02T23:07:09.863Z,8.60
2018-10-02T23:09:38.433Z,8.60
2018-10-02T23:12:07.144Z,8.60
2018-10-02T23:14:35.686Z,8.60
2018-10-02T23:17:04.241Z,8.60
2018-10-02T23:19:32.773Z,8.60
2018-10-02T23:22:01.318Z,8.60
2018-10-02T23:24:29.904Z,8.60
2018-10-02T23:26:58.459Z,8.60
2018-10-02T23:29:26.975Z,8.70
2018-10-02T23:31:55.509Z,8.70
2018-10-02T23:34:24.075Z,8.70
2018-10-02T23:36:52.684Z,8.70
2018-10-02T23:39:21.259Z,8.70
2018-10-02T23:41:49.827Z,8.70
2018-10-02T23:44:18.405Z,8.70
2018-10-02T23:46:47.167Z,8.70
2018-10-02T23:49:15.703Z,8.80
2018-10-02T23:51:44.235Z,8.80
2018-10-02T23:54:12.805Z,8.90
2018-10-02T23:56:41.350Z,8.90
2018-10-02T23:59:09.911Z,8.90
